sensor_id;sensor_type;location;lat;lon;timestamp;pressure;altitude;pressure_sealevel;temperature;humidity
788;BME280;16074;42.708;23.312;2022-09-27T00:01:51;129611.91;;;16.42;100.00
788;BME280;16074;42.708;23.312;2022-09-27T00:04:19;129805.00;;;16.44;100.00
788;BME280;16074;42.708;23.312;2022-09-27T00:06:48;129738.63;;;16.43;100.00
788;BME280;16074;42.708;23.312;2022-09-27T00:09:16;130251.19;;;16.47;100.00
788;BME280;16074;42.708;23.312;2022-09-27T00:11:45;131420.91;;;16.42;100.00
788;BME280;16074;42.708;23.312;2022-09-27T00:14:15;131733.06;;;16.25;100.00
788;BME280;16074;42.708;23.312;2022-09-27T00:16:43;131137.78;;;16.29;100.00
788;BME280;16074;42.708;23.312;2022-09-27T00:19:13;131050.69;;;16.29;100.00
788;BME280;16074;42.708;23.312;2022-09-27T00:21:43;131016.38;;;16.28;100.00
788;BME280;16074;42.708;23.312;2022-09-27T00:24:14;131540.41;;;16.28;100.00
788;BME280;16074;42.708;23.312;2022-09-27T00:26:43;131601.13;;;16.21;100.00
788;BME280;16074;42.708;23.312;2022-09-27T00:29:13;131418.72;;;16.25;100.00
788;BME280;16074;42.708;23.312;2022-09-27T00:31:41;131410.00;;;16.24;100.00
788;BME280;16074;42.708;23.312;2022-09-27T00:34:17;131225.09;;;16.25;100.00
788;BME280;16074;42.708;23.312;2022-09-27T00:36:45;131178.75;;;16.27;100.00
788;BME280;16074;42.708;23.312;2022-09-27T00:39:15;132228.59;;;16.23;100.00
788;BME280;16074;42.708;23.312;2022-09-27T00:41:44;133191.34;;;16.10;100.00
788;BME280;16074;42.708;23.312;2022-09-27T00:47:23;132363.22;;;15.89;100.00
788;BME280;16074;42.708;23.312;2022-09-27T00:49:56;132408.41;;;15.96;100.00
788;BME280;16074;42.708;23.312;2022-09-27T00:52:32;132326.66;;;15.96;100.00
788;BME280;16074;42.708;23.312;2022-09-27T00:55:06;133557.38;;;15.84;100.00
788;BME280;16074;42.708;23.312;2022-09-27T00:57:37;133911.56;;;15.70;100.00
788;BME280;16074;42.708;23.312;2022-09-27T01:00:08;133938.69;;;15.66;100.00
788;BME280;16074;42.708;23.312;2022-09-27T01:02:37;134585.13;;;15.50;100.00
788;BME280;16074;42.708;23.312;2022-09-27T01:05:09;133819.00;;;15.51;100.00
788;BME280;16074;42.708;23.312;2022-09-27T01:07:38;133841.47;;;15.55;100.00
788;BME280;16074;42.708;23.312;2022-09-27T01:10:09;134188.50;;;15.56;100.00
788;BME280;16074;42.708;23.312;2022-09-27T01:12:44;134876.78;;;15.45;100.00
788;BME280;16074;42.708;23.312;2022-09-27T01:15:24;135247.94;;;15.50;100.00
788;BME280;16074;42.708;23.312;2022-09-27T01:18:07;134980.66;;;15.46;100.00
788;BME280;16074;42.708;23.312;2022-09-27T01:20:51;135307.63;;;15.33;100.00
788;BME280;16074;42.708;23.312;2022-09-27T01:23:37;134911.06;;;15.36;100.00
788;BME280;16074;42.708;23.312;2022-09-27T01:26:23;134682.47;;;15.47;100.00
788;BME280;16074;42.708;23.312;2022-09-27T01:29:03;135255.84;;;15.43;100.00
788;BME280;16074;42.708;23.312;2022-09-27T01:31:39;135117.69;;;15.44;100.00
788;BME280;16074;42.708;23.312;2022-09-27T01:34:15;135368.56;;;15.49;100.00
788;BME280;16074;42.708;23.312;2022-09-27T01:36:52;135175.47;;;15.57;100.00
788;BME280;16074;42.708;23.312;2022-09-27T01:39:32;135520.72;;;15.60;100.00
788;BME280;16074;42.708;23.312;2022-09-27T01:42:49;135771.78;;;15.64;100.00
788;BME280;16074;42.708;23.312;2022-09-27T01:45:23;136956.22;;;15.42;100.00
788;BME280;16074;42.708;23.312;2022-09-27T01:48:07;136766.75;;;15.41;100.00
788;BME280;16074;42.708;23.312;2022-09-27T01:50:55;136906.97;;;15.41;100.00
788;BME280;16074;42.708;23.312;2022-09-27T01:53:29;136823.19;;;15.48;100.00
788;BME280;16074;42.708;23.312;2022-09-27T01:56:32;137686.06;;;15.26;100.00
788;BME280;16074;42.708;23.312;2022-09-27T01:59:08;137577.13;;;15.24;100.00
788;BME280;16074;42.708;23.312;2022-09-27T02:01:46;137682.78;;;15.15;100.00
788;BME280;16074;42.708;23.312;2022-09-27T02:04:21;137329.31;;;15.17;100.00
788;BME280;16074;42.708;23.312;2022-09-27T02:07:16;136842.25;;;15.27;100.00
788;BME280;16074;42.708;23.312;2022-09-27T02:09:52;137168.34;;;15.27;100.00
788;BME280;16074;42.708;23.312;2022-09-27T02:12:34;137502.47;;;15.27;100.00
788;BME280;16074;42.708;23.312;2022-09-27T02:15:09;137434.00;;;15.32;100.00
788;BME280;16074;42.708;23.312;2022-09-27T02:17:43;137343.78;;;15.38;100.00
788;BME280;16074;42.708;23.312;2022-09-27T02:20:20;137722.22;;;15.30;100.00
788;BME280;16074;42.708;23.312;2022-09-27T02:23:01;137613.81;;;15.38;100.00
788;BME280;16074;42.708;23.312;2022-09-27T02:25:39;138238.91;;;15.28;100.00
788;BME280;16074;42.708;23.312;2022-09-27T02:28:16;138134.00;;;15.25;100.00
788;BME280;16074;42.708;23.312;2022-09-27T02:30:48;138421.66;;;15.20;100.00
788;BME280;16074;42.708;23.312;2022-09-27T02:33:35;138264.25;;;15.19;100.00
788;BME280;16074;42.708;23.312;2022-09-27T02:36:06;138181.38;;;15.19;100.00
788;BME280;16074;42.708;23.312;2022-09-27T02:38:35;138432.03;;;15.04;100.00
788;BME280;16074;42.708;23.312;2022-09-27T02:41:12;138340.63;;;15.02;100.00
788;BME280;16074;42.708;23.312;2022-09-27T02:43:42;138389.69;;;14.99;100.00
788;BME280;16074;42.708;23.312;2022-09-27T02:46:23;138545.94;;;14.95;100.00
788;BME280;16074;42.708;23.312;2022-09-27T02:49:03;138544.91;;;15.02;100.00
788;BME280;16074;42.708;23.312;2022-09-27T02:51:46;138597.94;;;15.12;100.00
788;BME280;16074;42.708;23.312;2022-09-27T02:54:23;138827.84;;;15.12;100.00
788;BME280;16074;42.708;23.312;2022-09-27T02:57:28;139033.72;;;15.12;100.00
788;BME280;16074;42.708;23.312;2022-09-27T03:00:15;138996.28;;;15.17;100.00
788;BME280;16074;42.708;23.312;2022-09-27T03:03:00;139135.56;;;15.25;100.00
788;BME280;16074;42.708;23.312;2022-09-27T03:05:42;139510.84;;;15.13;100.00
788;BME280;16074;42.708;23.312;2022-09-27T03:08:14;139362.56;;;15.21;100.00
788;BME280;16074;42.708;23.312;2022-09-27T03:10:42;139405.97;;;15.24;100.00
788;BME280;16074;42.708;23.312;2022-09-27T03:13:11;139457.38;;;15.31;100.00
788;BME280;16074;42.708;23.312;2022-09-27T03:15:40;139379.78;;;15.40;100.00
788;BME280;16074;42.708;23.312;2022-09-27T03:18:29;139452.88;;;15.46;100.00
788;BME280;16074;42.708;23.312;2022-09-27T03:21:15;139555.16;;;15.48;100.00
788;BME280;16074;42.708;23.312;2022-09-27T03:23:46;139713.88;;;15.50;100.00
788;BME280;16074;42.708;23.312;2022-09-27T03:26:15;139856.63;;;15.51;100.00
788;BME280;16074;42.708;23.312;2022-09-27T03:28:44;139939.56;;;15.55;100.00
788;BME280;16074;42.708;23.312;2022-09-27T03:31:12;140031.78;;;15.56;100.00
788;BME280;16074;42.708;23.312;2022-09-27T03:33:50;140135.50;;;15.49;100.00
788;BME280;16074;42.708;23.312;2022-09-27T03:36:19;140223.25;;;15.55;100.00
788;BME280;16074;42.708;23.312;2022-09-27T03:38:48;140369.16;;;15.46;100.00
788;BME280;16074;42.708;23.312;2022-09-27T03:41:19;140385.50;;;15.45;100.00
788;BME280;16074;42.708;23.312;2022-09-27T03:43:47;140504.66;;;15.40;100.00
788;BME280;16074;42.708;23.312;2022-09-27T03:46:15;140392.38;;;15.49;100.00
788;BME280;16074;42.708;23.312;2022-09-27T03:48:44;140371.31;;;15.52;100.00
788;BME280;16074;42.708;23.312;2022-09-27T03:51:12;140386.22;;;15.56;100.00
788;BME280;16074;42.708;23.312;2022-09-27T03:53:40;140564.97;;;15.58;100.00
788;BME280;16074;42.708;23.312;2022-09-27T03:56:10;140713.66;;;15.58;100.00
788;BME280;16074;42.708;23.312;2022-09-27T03:58:38;140873.44;;;15.61;100.00
788;BME280;16074;42.708;23.312;2022-09-27T04:01:06;140852.97;;;15.62;100.00
788;BME280;16074;42.708;23.312;2022-09-27T04:03:37;140858.94;;;15.65;100.00
788;BME280;16074;42.708;23.312;2022-09-27T04:06:07;140746.03;;;15.71;100.00
788;BME280;16074;42.708;23.312;2022-09-27T04:08:39;140873.72;;;15.74;100.00
788;BME280;16074;42.708;23.312;2022-09-27T04:11:10;140890.50;;;15.81;100.00
788;BME280;16074;42.708;23.312;2022-09-27T04:13:41;141100.50;;;15.77;100.00
788;BME280;16074;42.708;23.312;2022-09-27T04:16:10;141214.53;;;15.81;100.00
788;BME280;16074;42.708;23.312;2022-09-27T04:18:49;141309.72;;;15.81;100.00
788;BME280;16074;42.708;23.312;2022-09-27T04:21:36;141361.31;;;15.83;100.00
788;BME280;16074;42.708;23.312;2022-09-27T04:24:07;141327.66;;;15.84;100.00
788;BME280;16074;42.708;23.312;2022-09-27T04:26:39;141408.56;;;15.82;100.00
788;BME280;16074;42.708;23.312;2022-09-27T04:29:12;141368.09;;;15.83;100.00
788;BME280;16074;42.708;23.312;2022-09-27T04:31:48;141452.47;;;15.88;100.00
788;BME280;16074;42.708;23.312;2022-09-27T04:34:18;141638.72;;;15.87;100.00
788;BME280;16074;42.708;23.312;2022-09-27T04:37:13;141608.47;;;15.90;100.00
788;BME280;16074;42.708;23.312;2022-09-27T04:39:44;141601.13;;;15.93;100.00
788;BME280;16074;42.708;23.312;2022-09-27T04:42:14;141662.03;;;15.90;100.00
788;BME280;16074;42.708;23.312;2022-09-27T04:44:42;141683.38;;;15.96;100.00
788;BME280;16074;42.708;23.312;2022-09-27T04:47:11;141848.25;;;15.95;100.00
788;BME280;16074;42.708;23.312;2022-09-27T04:49:40;141926.06;;;15.90;100.00
788;BME280;16074;42.708;23.312;2022-09-27T04:52:09;141970.97;;;15.97;100.00
788;BME280;16074;42.708;23.312;2022-09-27T04:54:37;141948.75;;;16.00;100.00
788;BME280;16074;42.708;23.312;2022-09-27T04:57:10;141986.78;;;15.98;100.00
788;BME280;16074;42.708;23.312;2022-09-27T04:59:43;142055.66;;;16.01;100.00
788;BME280;16074;42.708;23.312;2022-09-27T05:02:12;142121.44;;;16.01;100.00
788;BME280;16074;42.708;23.312;2022-09-27T05:04:59;142156.19;;;15.91;100.00
788;BME280;16074;42.708;23.312;2022-09-27T05:07:34;142176.75;;;15.99;100.00
788;BME280;16074;42.708;23.312;2022-09-27T05:10:08;142181.59;;;16.01;100.00
788;BME280;16074;42.708;23.312;2022-09-27T05:12:36;142179.16;;;16.00;100.00
788;BME280;16074;42.708;23.312;2022-09-27T05:15:07;142174.31;;;15.98;100.00
788;BME280;16074;42.708;23.312;2022-09-27T05:17:58;142161.03;;;15.93;100.00
788;BME280;16074;42.708;23.312;2022-09-27T05:20:33;142150.13;;;15.88;100.00
788;BME280;16074;42.708;23.312;2022-09-27T05:23:16;142142.91;;;15.85;100.00
788;BME280;16074;42.708;23.312;2022-09-27T05:25:46;142139.25;;;15.84;100.00
788;BME280;16074;42.708;23.312;2022-09-27T05:28:14;142136.81;;;15.83;100.00
788;BME280;16074;42.708;23.312;2022-09-27T05:30:43;142127.16;;;15.79;100.00
788;BME280;16074;42.708;23.312;2022-09-27T05:33:17;142140.47;;;15.84;100.00
788;BME280;16074;42.708;23.312;2022-09-27T05:35:50;142140.47;;;15.84;100.00
788;BME280;16074;42.708;23.312;2022-09-27T05:38:21;142131.97;;;15.81;100.00
788;BME280;16074;42.708;23.312;2022-09-27T05:40:52;142095.69;;;15.66;100.00
788;BME280;16074;42.708;23.312;2022-09-27T05:43:20;142096.91;;;15.66;100.00
788;BME280;16074;42.708;23.312;2022-09-27T05:45:51;142083.56;;;15.61;100.00
788;BME280;16074;42.708;23.312;2022-09-27T05:48:20;142094.50;;;15.65;100.00
788;BME280;16074;42.708;23.312;2022-09-27T05:50:54;142070.28;;;15.55;100.00
788;BME280;16074;42.708;23.312;2022-09-27T05:53:22;142078.75;;;15.59;100.00
788;BME280;16074;42.708;23.312;2022-09-27T05:55:52;142089.66;;;15.63;100.00
788;BME280;16074;42.708;23.312;2022-09-27T05:58:28;142084.81;;;15.61;100.00
788;BME280;16074;42.708;23.312;2022-09-27T06:01:13;142089.66;;;15.63;100.00
788;BME280;16074;42.708;23.312;2022-09-27T06:04:11;142070.28;;;15.55;100.00
788;BME280;16074;42.708;23.312;2022-09-27T06:07:08;142081.16;;;15.60;100.00
788;BME280;16074;42.708;23.312;2022-09-27T06:09:37;142094.50;;;15.65;100.00
788;BME280;16074;42.708;23.312;2022-09-27T06:12:05;142094.50;;;15.65;100.00
788;BME280;16074;42.708;23.312;2022-09-27T06:14:37;142096.91;;;15.66;100.00
788;BME280;16074;42.708;23.312;2022-09-27T06:17:12;142112.63;;;15.73;100.00
788;BME280;16074;42.708;23.312;2022-09-27T06:19:43;142125.97;;;15.78;100.00
788;BME280;16074;42.708;23.312;2022-09-27T06:22:14;142151.34;;;15.89;100.00
788;BME280;16074;42.708;23.312;2022-09-27T06:24:55;142176.75;;;15.99;100.00
788;BME280;16074;42.708;23.312;2022-09-27T06:27:26;142180.41;;;16.01;100.00
788;BME280;16074;42.708;23.312;2022-09-27T06:30:07;142198.53;;;16.08;100.00
788;BME280;16074;42.708;23.312;2022-09-27T06:32:56;142196.13;;;16.07;100.00
788;BME280;16074;42.708;23.312;2022-09-27T06:35:34;142219.09;;;16.17;100.00
788;BME280;16074;42.708;23.312;2022-09-27T06:38:03;142222.75;;;16.18;100.00
788;BME280;16074;42.708;23.312;2022-09-27T06:40:32;142225.19;;;16.19;100.00
788;BME280;16074;42.708;23.312;2022-09-27T06:43:21;142223.94;;;16.19;100.00
788;BME280;16074;42.708;23.312;2022-09-27T06:46:08;142207.03;;;16.12;100.00
788;BME280;16074;42.708;23.312;2022-09-27T06:49:04;142200.97;;;16.09;100.00
788;BME280;16074;42.708;23.312;2022-09-27T06:51:33;142215.50;;;16.15;100.00
788;BME280;16074;42.708;23.312;2022-09-27T06:54:02;142197.34;;;16.08;100.00
788;BME280;16074;42.708;23.312;2022-09-27T06:56:30;142197.34;;;16.08;100.00
788;BME280;16074;42.708;23.312;2022-09-27T06:58:59;142175.56;;;15.99;100.00
788;BME280;16074;42.708;23.312;2022-09-27T07:01:44;142168.28;;;15.96;100.00
788;BME280;16074;42.708;23.312;2022-09-27T07:04:26;142164.63;;;15.94;100.00
788;BME280;16074;42.708;23.312;2022-09-27T07:07:21;142174.31;;;15.98;100.00
788;BME280;16074;42.708;23.312;2022-09-27T07:09:50;142164.63;;;15.94;100.00
788;BME280;16074;42.708;23.312;2022-09-27T07:12:19;142181.59;;;16.01;100.00
788;BME280;16074;42.708;23.312;2022-09-27T07:14:50;142182.81;;;16.02;100.00
788;BME280;16074;42.708;23.312;2022-09-27T07:17:19;142190.09;;;16.05;100.00
788;BME280;16074;42.708;23.312;2022-09-27T07:19:50;142171.91;;;15.97;100.00
788;BME280;16074;42.708;23.312;2022-09-27T07:22:19;142199.78;;;16.09;100.00
788;BME280;16074;42.708;23.312;2022-09-27T07:24:53;142209.47;;;16.13;100.00
788;BME280;16074;42.708;23.312;2022-09-27T07:27:22;142222.75;;;16.18;100.00
788;BME280;16074;42.708;23.312;2022-09-27T07:29:53;142249.38;;;16.29;100.00
788;BME280;16074;42.708;23.312;2022-09-27T07:32:23;142272.41;;;16.39;100.00
788;BME280;16074;42.708;23.312;2022-09-27T07:34:54;142295.41;;;16.48;100.00
788;BME280;16074;42.708;23.312;2022-09-27T07:37:22;142302.66;;;16.51;100.00
788;BME280;16074;42.708;23.312;2022-09-27T07:39:50;142320.84;;;16.59;100.00
788;BME280;16074;42.708;23.312;2022-09-27T07:42:18;142351.13;;;16.71;100.00
788;BME280;16074;42.708;23.312;2022-09-27T07:44:50;142365.66;;;16.77;100.00
788;BME280;16074;42.708;23.312;2022-09-27T07:47:37;142371.69;;;16.79;100.00
788;BME280;16074;42.708;23.312;2022-09-27T07:50:21;142399.56;;;16.91;100.00
788;BME280;16074;42.708;23.312;2022-09-27T07:52:56;142408.03;;;16.94;100.00
788;BME280;16074;42.708;23.312;2022-09-27T07:56:00;142402.00;;;16.92;100.00
788;BME280;16074;42.708;23.312;2022-09-27T07:58:31;142362.00;;;16.75;100.00
788;BME280;16074;42.708;23.312;2022-09-27T08:01:03;142354.72;;;16.73;100.00
788;BME280;16074;42.708;23.312;2022-09-27T08:03:31;142352.31;;;16.72;100.00
788;BME280;16074;42.708;23.312;2022-09-27T08:06:02;142340.25;;;16.67;100.00
788;BME280;16074;42.708;23.312;2022-09-27T08:08:31;142328.13;;;16.62;100.00
788;BME280;16074;42.708;23.312;2022-09-27T08:11:00;142317.22;;;16.57;100.00
788;BME280;16074;42.708;23.312;2022-09-27T08:13:29;142323.28;;;16.60;100.00
788;BME280;16074;42.708;23.312;2022-09-27T08:16:00;142325.72;;;16.61;100.00
788;BME280;16074;42.708;23.312;2022-09-27T08:18:48;142325.72;;;16.61;100.00
788;BME280;16074;42.708;23.312;2022-09-27T08:21:37;142308.75;;;16.54;100.00
788;BME280;16074;42.708;23.312;2022-09-27T08:24:15;142312.34;;;16.55;100.00
788;BME280;16074;42.708;23.312;2022-09-27T08:27:02;142324.47;;;16.60;100.00
788;BME280;16074;42.708;23.312;2022-09-27T08:29:51;142348.69;;;16.70;100.00
788;BME280;16074;42.708;23.312;2022-09-27T08:32:21;142368.06;;;16.78;100.00
788;BME280;16074;42.708;23.312;2022-09-27T08:34:50;142371.69;;;16.79;100.00
788;BME280;16074;42.708;23.312;2022-09-27T08:37:22;142385.03;;;16.85;100.00
788;BME280;16074;42.708;23.312;2022-09-27T08:39:50;142409.28;;;16.95;100.00
788;BME280;16074;42.708;23.312;2022-09-27T08:42:26;142422.56;;;17.00;100.00
788;BME280;16074;42.708;23.312;2022-09-27T08:45:01;142446.81;;;17.10;100.00
788;BME280;16074;42.708;23.312;2022-09-27T08:47:34;142474.66;;;17.22;100.00
788;BME280;16074;42.708;23.312;2022-09-27T08:50:14;142495.22;;;17.30;100.00
788;BME280;16074;42.708;23.312;2022-09-27T08:52:51;142523.19;;;17.42;100.00
788;BME280;16074;42.708;23.312;2022-09-27T08:55:29;142563.16;;;17.58;100.00
788;BME280;16074;42.708;23.312;2022-09-27T08:57:58;142586.16;;;17.68;100.00
788;BME280;16074;42.708;23.312;2022-09-27T09:00:28;142612.84;;;17.79;100.00
788;BME280;16074;42.708;23.312;2022-09-27T09:03:00;142652.81;;;17.95;100.00
788;BME280;16074;42.708;23.312;2022-09-27T09:05:33;142686.78;;;18.09;100.00
788;BME280;16074;42.708;23.312;2022-09-27T09:08:20;142734.09;;;18.28;100.00
788;BME280;16074;42.708;23.312;2022-09-27T09:10:58;142747.47;;;18.34;100.00
788;BME280;16074;42.708;23.312;2022-09-27T09:13:57;142820.22;;;18.64;100.00
788;BME280;16074;42.708;23.312;2022-09-27T09:16:41;142873.63;;;18.86;100.00
788;BME280;16074;42.708;23.312;2022-09-27T09:19:38;142937.91;;;19.12;100.00
788;BME280;16074;42.708;23.312;2022-09-27T09:22:44;142997.44;;;19.36;100.00
788;BME280;16074;42.708;23.312;2022-09-27T09:25:26;143019.28;;;19.45;100.00
788;BME280;16074;42.708;23.312;2022-09-27T09:28:09;143058.09;;;19.61;100.00
788;BME280;16074;42.708;23.312;2022-09-27T09:30:48;143045.94;;;19.56;100.00
788;BME280;16074;42.708;23.312;2022-09-27T09:33:23;143088.47;;;19.74;100.00
788;BME280;16074;42.708;23.312;2022-09-27T09:35:56;143133.38;;;19.92;100.00
788;BME280;16074;42.708;23.312;2022-09-27T09:38:34;143213.56;;;20.25;100.00
788;BME280;16074;42.708;23.312;2022-09-27T09:41:10;143324.13;;;20.70;100.00
788;BME280;16074;42.708;23.312;2022-09-27T09:43:45;143432.38;;;21.15;100.00
788;BME280;16074;42.708;23.312;2022-09-27T09:46:18;143532.03;;;21.56;100.00
788;BME280;16074;42.708;23.312;2022-09-27T09:48:51;143614.75;;;21.89;100.00
788;BME280;16074;42.708;23.312;2022-09-27T09:51:25;143697.53;;;22.23;100.00
788;BME280;16074;42.708;23.312;2022-09-27T09:53:58;143757.19;;;22.48;100.00
788;BME280;16074;42.708;23.312;2022-09-27T09:56:38;143792.47;;;22.62;100.00
788;BME280;16074;42.708;23.312;2022-09-27T09:59:10;143787.59;;;22.60;95.10
788;BME280;16074;42.708;23.312;2022-09-27T10:01:43;143842.38;;;22.83;95.90
788;BME280;16074;42.708;23.312;2022-09-27T10:04:17;143848.47;;;22.85;94.35
788;BME280;16074;42.708;23.312;2022-09-27T10:06:47;143859.41;;;22.90;94.31
788;BME280;16074;42.708;23.312;2022-09-27T10:09:19;143836.28;;;22.80;90.39
788;BME280;16074;42.708;23.312;2022-09-27T10:12:09;143811.94;;;22.70;90.91
788;BME280;16074;42.708;23.312;2022-09-27T10:14:41;143815.56;;;22.72;92.70
788;BME280;16074;42.708;23.312;2022-09-27T10:17:13;143821.69;;;22.74;92.09
788;BME280;16074;42.708;23.312;2022-09-27T10:19:44;143818.00;;;22.73;90.08
788;BME280;16074;42.708;23.312;2022-09-27T10:22:18;143805.84;;;22.68;88.90
788;BME280;16074;42.708;23.312;2022-09-27T10:24:55;143798.56;;;22.65;88.90
788;BME280;16074;42.708;23.312;2022-09-27T10:27:43;143846.03;;;22.84;90.22
788;BME280;16074;42.708;23.312;2022-09-27T10:30:23;143928.84;;;23.18;94.30
788;BME280;16074;42.708;23.312;2022-09-27T10:32:53;143920.34;;;23.14;84.99
788;BME280;16074;42.708;23.312;2022-09-27T10:35:41;143972.72;;;23.36;86.68
788;BME280;16074;42.708;23.312;2022-09-27T10:38:24;144016.50;;;23.54;88.13
788;BME280;16074;42.708;23.312;2022-09-27T10:41:16;144065.25;;;23.74;87.36
788;BME280;16074;42.708;23.312;2022-09-27T10:43:50;144076.25;;;23.78;83.97
788;BME280;16074;42.708;23.312;2022-09-27T10:46:31;144090.88;;;23.84;82.26
788;BME280;16074;42.708;23.312;2022-09-27T10:49:24;144081.13;;;23.80;83.75
788;BME280;16074;42.708;23.312;2022-09-27T10:51:54;144070.13;;;23.76;83.88
788;BME280;16074;42.708;23.312;2022-09-27T10:54:26;144093.31;;;23.85;81.16
788;BME280;16074;42.708;23.312;2022-09-27T10:56:58;144150.56;;;24.09;78.50
788;BME280;16074;42.708;23.312;2022-09-27T10:59:30;144251.78;;;24.50;83.21
788;BME280;16074;42.708;23.312;2022-09-27T11:02:00;144371.25;;;24.99;81.72
788;BME280;16074;42.708;23.312;2022-09-27T11:04:38;144476.22;;;25.42;75.88
788;BME280;16074;42.708;23.312;2022-09-27T11:07:17;144557.97;;;25.75;73.04
788;BME280;16074;42.708;23.312;2022-09-27T11:09:59;144671.47;;;26.21;71.89
788;BME280;16074;42.708;23.312;2022-09-27T11:12:32;144775.31;;;26.64;67.57
788;BME280;16074;42.708;23.312;2022-09-27T11:15:08;144874.25;;;27.04;67.71
788;BME280;16074;42.708;23.312;2022-09-27T11:17:50;144987.88;;;27.50;65.69
788;BME280;16074;42.708;23.312;2022-09-27T11:20:29;145056.38;;;27.78;62.71
788;BME280;16074;42.708;23.312;2022-09-27T11:23:26;145017.19;;;27.62;58.82
788;BME280;16074;42.708;23.312;2022-09-27T11:26:16;144974.44;;;27.45;61.66
788;BME280;16074;42.708;23.312;2022-09-27T11:28:54;144929.25;;;27.26;62.18
788;BME280;16074;42.708;23.312;2022-09-27T11:32:02;144837.59;;;26.89;61.50
788;BME280;16074;42.708;23.312;2022-09-27T11:34:46;144752.13;;;26.54;60.68
788;BME280;16074;42.708;23.312;2022-09-27T11:37:25;144748.44;;;26.53;63.10
788;BME280;16074;42.708;23.312;2022-09-27T11:40:06;144771.66;;;26.62;62.81
788;BME280;16074;42.708;23.312;2022-09-27T11:43:10;144813.16;;;26.79;59.81
788;BME280;16074;42.708;23.312;2022-09-27T11:45:53;144860.78;;;26.98;59.16
788;BME280;16074;42.708;23.312;2022-09-27T11:49:04;144923.09;;;27.24;58.71
788;BME280;16074;42.708;23.312;2022-09-27T11:51:49;144942.66;;;27.32;60.55
788;BME280;16074;42.708;23.312;2022-09-27T11:54:32;145003.78;;;27.57;61.08
788;BME280;16074;42.708;23.312;2022-09-27T11:57:13;145051.47;;;27.76;57.79
788;BME280;16074;42.708;23.312;2022-09-27T12:00:03;145130.94;;;28.08;56.53
788;BME280;16074;42.708;23.312;2022-09-27T12:06:00;145298.47;;;28.77;55.17
788;BME280;16074;42.708;23.312;2022-09-27T12:08:59;145220.22;;;28.45;52.58
788;BME280;16074;42.708;23.312;2022-09-27T12:11:36;145228.75;;;28.48;54.65
788;BME280;16074;42.708;23.312;2022-09-27T12:14:14;145236.09;;;28.51;54.10
788;BME280;16074;42.708;23.312;2022-09-27T12:16:45;145157.81;;;28.19;54.35
788;BME280;16074;42.708;23.312;2022-09-27T12:19:18;145211.63;;;28.41;55.04
788;BME280;16074;42.708;23.312;2022-09-27T12:22:01;145263.00;;;28.62;57.33
788;BME280;16074;42.708;23.312;2022-09-27T12:24:34;145300.91;;;28.78;53.66
788;BME280;16074;42.708;23.312;2022-09-27T12:27:38;145424.53;;;29.28;52.43
788;BME280;16074;42.708;23.312;2022-09-27T12:30:13;145419.63;;;29.26;50.91
788;BME280;16074;42.708;23.312;2022-09-27T12:32:50;145413.50;;;29.23;50.58
788;BME280;16074;42.708;23.312;2022-09-27T12:35:22;145457.56;;;29.41;50.25
788;BME280;16074;42.708;23.312;2022-09-27T12:37:57;145507.78;;;29.62;49.67
788;BME280;16074;42.708;23.312;2022-09-27T12:40:30;145539.59;;;29.75;49.48
788;BME280;16074;42.708;23.312;2022-09-27T12:43:06;145641.28;;;30.16;47.11
788;BME280;16074;42.708;23.312;2022-09-27T12:45:59;145747.88;;;30.59;45.98
788;BME280;16074;42.708;23.312;2022-09-27T12:48:38;145851.94;;;31.02;47.34
788;BME280;16074;42.708;23.312;2022-09-27T12:51:11;145875.31;;;31.11;46.06
788;BME280;16074;42.708;23.312;2022-09-27T12:53:56;145973.31;;;31.51;44.90
788;BME280;16074;42.708;23.312;2022-09-27T12:56:37;145959.81;;;31.46;44.26
788;BME280;16074;42.708;23.312;2022-09-27T12:59:26;145805.44;;;30.83;42.76
788;BME280;16074;42.708;23.312;2022-09-27T13:09:17;145807.88;;;30.84;43.04
788;BME280;16074;42.708;23.312;2022-09-27T13:11:56;145825.00;;;30.91;43.59
788;BME280;16074;42.708;23.312;2022-09-27T13:14:32;145851.94;;;31.02;42.02
788;BME280;16074;42.708;23.312;2022-09-27T13:17:01;145839.69;;;30.97;41.24
788;BME280;16074;42.708;23.312;2022-09-27T13:19:39;145885.09;;;31.15;42.15
788;BME280;16074;42.708;23.312;2022-09-27T13:22:35;145964.72;;;31.48;40.52
788;BME280;16074;42.708;23.312;2022-09-27T13:25:47;145939.00;;;31.37;40.53
788;BME280;16074;42.708;23.312;2022-09-27T13:28:31;146049.34;;;31.82;41.12
788;BME280;16074;42.708;23.312;2022-09-27T13:31:07;146201.44;;;32.44;40.25
788;BME280;16074;42.708;23.312;2022-09-27T13:33:45;146044.44;;;31.80;36.49
788;BME280;16074;42.708;23.312;2022-09-27T13:36:27;145845.84;;;30.99;38.50
788;BME280;16074;42.708;23.312;2022-09-27T13:39:17;145839.69;;;30.97;41.48
788;BME280;16074;42.708;23.312;2022-09-27T13:42:26;145904.69;;;31.23;39.35
788;BME280;16074;42.708;23.312;2022-09-27T13:45:17;145910.81;;;31.26;39.25
788;BME280;16074;42.708;23.312;2022-09-27T13:47:48;145843.41;;;30.98;39.97
788;BME280;16074;42.708;23.312;2022-09-27T13:50:25;145851.94;;;31.02;38.55
788;BME280;16074;42.708;23.312;2022-09-27T13:53:04;145725.75;;;30.51;39.17
788;BME280;16074;42.708;23.312;2022-09-27T13:55:42;145772.31;;;30.69;39.92
788;BME280;16074;42.708;23.312;2022-09-27T13:58:37;145729.41;;;30.52;40.19